Terminal Aerodrome Forecast
Issued by NWS

Home | Current Version | Previous Version | Graphics & Text | Print | Product List | Glossary On
Versions: 1 2 3 4 5 6 7 8 9 10 11 12 13 14
648
FTUS43 KBIS 300521
TAFDIK
TAF
KDIK 300521Z 3006/0106 07006KT P6SM BKN060
     FM301400 07015KT P6SM SCT040
     FM010200 06006KT P6SM SKC=

USA.gov is the U.S. government's official web portal to all federal, state and local government web resources and services.